createdAt,value
2019-02-20T00:05:10.119Z,1.08
2019-02-20T00:16:08.095Z,1.32
2019-02-20T00:27:12.485Z,1.37
2019-02-20T00:38:15.322Z,1.41
2019-02-20T00:49:11.515Z,1.16
2019-02-20T01:00:16.369Z,1.40
2019-02-20T01:10:53.163Z,1.18
2019-02-20T01:21:39.715Z,1.19
2019-02-20T01:32:39.754Z,1.25
2019-02-20T01:43:37.243Z,1.01
2019-02-20T01:54:33.838Z,0.94
2019-02-20T02:05:27.947Z,0.87
2019-02-20T02:16:29.597Z,0.92
2019-02-20T02:27:31.392Z,0.71
2019-02-20T02:38:34.313Z,0.72
2019-02-20T02:49:31.973Z,0.65
2019-02-20T03:00:29.739Z,0.53
2019-02-20T03:11:29.740Z,0.66
2019-02-20T03:22:28.834Z,0.61
2019-02-20T03:33:28.972Z,0.68
2019-02-20T03:44:24.894Z,0.61
2019-02-20T03:55:20.869Z,0.69
2019-02-20T04:06:18.880Z,1.02
2019-02-20T04:17:20.775Z,0.93
2019-02-20T04:28:24.771Z,1.05
2019-02-20T04:39:25.307Z,1.16
2019-02-20T04:50:22.304Z,1.41
2019-02-20T05:01:26.636Z,1.58
2019-02-20T05:12:24.728Z,1.65
2019-02-20T05:23:23.544Z,1.50
2019-02-20T05:34:22.969Z,1.50
2019-02-20T05:45:23.596Z,1.46
2019-02-20T05:56:21.444Z,1.74
2019-02-20T06:07:08.535Z,1.82
2019-02-20T06:18:06.911Z,2.03
2019-02-20T06:29:04.953Z,2.32
2019-02-20T06:39:44.166Z,2.50
2019-02-20T06:50:41.157Z,2.74
2019-02-20T07:01:45.977Z,3.03
2019-02-20T07:12:49.356Z,3.24
2019-02-20T07:23:44.793Z,3.62
2019-02-20T07:34:45.711Z,3.93
2019-02-20T07:45:45.631Z,4.44
2019-02-20T07:56:46.424Z,5.17
2019-02-20T08:07:46.396Z,5.65
2019-02-20T08:18:48.590Z,6.13
2019-02-20T08:29:51.629Z,6.65
2019-02-20T08:40:54.502Z,7.11
2019-02-20T08:51:54.353Z,7.63
2019-02-20T09:02:54.480Z,8.21
2019-02-20T09:13:54.626Z,8.68
2019-02-20T09:24:55.783Z,9.25
2019-02-20T09:35:59.841Z,9.79
2019-02-20T09:46:57.948Z,9.98
2019-02-20T09:57:53.996Z,10.37
2019-02-20T10:08:57.532Z,10.59
2019-02-20T10:19:53.394Z,10.81
2019-02-20T10:31:02.688Z,10.73
2019-02-20T10:42:02.085Z,10.83
2019-02-20T10:53:01.994Z,11.21
2019-02-20T11:04:01.288Z,11.60
2019-02-20T11:15:00.273Z,11.76
2019-02-20T11:25:58.625Z,12.86
2019-02-20T11:36:59.250Z,13.83
2019-02-20T11:47:56.066Z,14.05
2019-02-20T11:58:57.828Z,15.16
2019-02-20T12:10:01.600Z,14.97
2019-02-20T12:21:04.238Z,15.02
2019-02-20T12:32:06.386Z,13.96
2019-02-20T12:43:08.601Z,14.24
2019-02-20T12:54:10.091Z,14.78
2019-02-20T13:05:09.935Z,14.69
2019-02-20T13:15:55.505Z,15.45
2019-02-20T13:26:58.901Z,15.99
2019-02-20T13:38:04.181Z,15.94
2019-02-20T13:49:05.676Z,15.28
2019-02-20T14:00:05.649Z,14.85
2019-02-20T14:11:04.769Z,14.68
2019-02-20T14:22:01.144Z,14.19
2019-02-20T14:32:56.121Z,14.41
2019-02-20T14:43:54.239Z,13.71
2019-02-20T14:54:50.083Z,13.44
2019-02-20T15:05:47.995Z,13.29
2019-02-20T15:16:45.002Z,13.19
2019-02-20T15:27:44.762Z,12.82
2019-02-20T15:38:37.367Z,12.45
2019-02-20T15:49:34.999Z,12.03
2019-02-20T16:00:37.123Z,11.53
2019-02-20T16:11:27.633Z,10.71
2019-02-20T16:22:26.716Z,10.33
2019-02-20T16:33:25.202Z,10.01
2019-02-20T16:44:20.962Z,9.47
2019-02-20T16:55:19.121Z,9.05
2019-02-20T17:06:18.333Z,8.58
2019-02-20T17:17:12.803Z,8.33
2019-02-20T17:28:12.016Z,8.17
2019-02-20T17:39:13.648Z,8.39
2019-02-20T17:50:12.263Z,8.36
2019-02-20T18:01:08.912Z,8.22
2019-02-20T18:12:03.855Z,7.97
2019-02-20T18:23:00.139Z,7.73
2019-02-20T18:34:01.669Z,7.56
2019-02-20T18:44:57.408Z,7.12
2019-02-20T18:55:56.437Z,7.09
2019-02-20T19:06:58.593Z,6.88
2019-02-20T19:17:56.319Z,6.60
2019-02-20T19:28:55.570Z,6.69
2019-02-20T19:39:53.801Z,6.70
2019-02-20T19:50:43.370Z,6.45
2019-02-20T20:01:39.246Z,6.51
2019-02-20T20:12:36.144Z,6.51
2019-02-20T20:23:31.418Z,6.45
2019-02-20T20:34:29.898Z,6.32
2019-02-20T20:45:30.123Z,6.42
2019-02-20T20:56:24.662Z,6.34
2019-02-20T21:07:27.339Z,6.27
2019-02-20T21:18:24.693Z,6.11
2019-02-20T21:29:28.063Z,5.89
2019-02-20T21:40:25.167Z,5.88
2019-02-20T21:51:07.192Z,5.89
2019-02-20T22:02:07.311Z,5.89
2019-02-20T22:13:09.571Z,5.92
2019-02-20T22:24:10.065Z,5.83
2019-02-20T22:35:10.766Z,5.68
2019-02-20T22:46:10.578Z,5.36
2019-02-20T22:57:08.003Z,4.96
2019-02-20T23:08:08.653Z,4.76
2019-02-20T23:19:05.781Z,4.50
2019-02-20T23:30:12.941Z,4.04
2019-02-20T23:41:13.363Z,3.82
2019-02-20T23:52:13.463Z,3.64
